Terminal Aerodrome Forecast
Issued by NWS Melbourne, FL

Home | Current Version | Previous Version | Text Only | Print | Product List | Glossary On
Versions: 1 2 3 4 5 6 7 8 9 10 11 12 13 14 15 16 17 18 19
000
FTUS42 KMLB 201723
TAFDAB
TAF
KDAB 201723Z 2018/2118 08007KT P6SM VCSH SCT035
     FM202200 09008KT P6SM FEW040 BKN120 OVC250
     FM211400 28004KT P6SM SCT035=

USA.gov is the U.S. government's official web portal to all federal, state and local government web resources and services.